Time;durP1;ratioP1;P1;durP2;ratioP2;P2;SDS_P1;SDS_P2;PMS_P1;PMS_P2;Temp;Humidity;BMP_temperature;BMP_pressure;BME280_temperature;BME280_humidity;BME280_pressure;Samples;Min_cycle;Max_cycle;Signal;HPM_P1;HPM_P2
2024/04/11 00:00:07;;;;;;;8.73;3.20;;;;;;;11.48;100.00;102848.69;5485356;26;20003;-77
2024/04/11 00:02:32;;;;;;;6.15;2.25;;;;;;;11.47;100.00;102852.31;5516220;26;20006;-77
2024/04/11 00:04:57;;;;;;;9.68;2.10;;;;;;;11.47;100.00;102849.63;5517114;26;20038;-78
2024/04/11 00:07:23;;;;;;;6.07;1.77;;;;;;;11.43;100.00;102843.63;5487486;26;19998;-78
2024/04/11 00:09:48;;;;;;;9.00;2.00;;;;;;;11.43;100.00;102838.28;5488069;26;20423;-79
2024/04/11 00:12:14;;;;;;;6.70;1.80;;;;;;;11.43;100.00;102840.13;5485237;26;20502;-77
2024/04/11 00:14:41;;;;;;;8.02;1.77;;;;;;;11.44;100.00;102844.50;5516633;26;20324;-77
2024/04/11 00:17:06;;;;;;;4.38;1.80;;;;;;;11.44;100.00;102844.50;5485115;26;20001;-78
2024/04/11 00:19:33;;;;;;;9.02;2.50;;;;;;;11.42;100.00;102857.94;5485747;26;20006;-78
2024/04/11 00:21:58;;;;;;;5.38;1.67;;;;;;;11.39;100.00;102852.78;5455748;26;19994;-78
2024/04/11 00:24:23;;;;;;;6.65;1.40;;;;;;;11.40;100.00;102858.97;5480658;26;20043;-79
2024/04/11 00:26:49;;;;;;;5.95;2.08;;;;;;;11.37;100.00;102849.34;5516590;26;19998;-77
2024/04/11 00:29:14;;;;;;;9.48;1.98;;;;;;;11.36;100.00;102837.00;5486645;26;20009;-77
2024/04/11 00:31:40;;;;;;;7.05;1.70;;;;;;;11.37;100.00;102832.50;5485523;26;20457;-78
2024/04/11 00:34:15;;;;;;;8.63;2.38;;;;;;;11.37;100.00;102840.50;5484837;26;20318;-80
2024/04/11 00:36:42;;;;;;;2.95;1.40;;;;;;;11.38;100.00;102850.22;5457600;26;20001;-78
2024/04/11 00:39:09;;;;;;;8.10;2.00;;;;;;;11.36;100.00;102841.44;5484583;26;19994;-80
2024/04/11 00:41:35;;;;;;;6.32;1.75;;;;;;;11.36;100.00;102839.66;5487208;26;20005;-79
2024/04/11 00:44:00;;;;;;;8.07;2.00;;;;;;;11.37;100.00;102838.69;5484878;26;20006;-79
2024/04/11 00:46:27;;;;;;;5.95;1.80;;;;;;;11.37;100.00;102829.84;5484371;26;20120;-79
2024/04/11 00:48:54;;;;;;;7.72;1.40;;;;;;;11.38;100.00;102828.91;5454863;26;20010;-78
2024/04/11 00:51:21;;;;;;;5.82;1.70;;;;;;;11.38;100.00;102834.22;5486345;26;19994;-79
2024/04/11 00:53:47;;;;;;;7.15;1.48;;;;;;;11.38;100.00;102828.91;5484995;26;19998;-79
2024/04/11 00:56:14;;;;;;;7.05;2.17;;;;;;;11.40;100.00;102835.81;5483796;26;20005;-80
2024/04/11 00:58:40;;;;;;;9.90;2.10;;;;;;;11.41;100.00;102826.88;5484831;26;19994;-80
2024/04/11 01:01:05;;;;;;;10.38;2.03;;;;;;;11.42;100.00;102807.28;5484724;26;20295;-78
2024/04/11 01:03:31;;;;;;;11.23;1.60;;;;;;;11.42;100.00;102814.41;5453751;26;20009;-76
2024/04/11 01:05:57;;;;;;;6.70;1.90;;;;;;;11.43;100.00;102816.13;5484767;26;20416;-77
2024/04/11 01:08:29;;;;;;;5.82;1.80;;;;;;;11.42;100.00;102806.41;5484207;26;20006;-80
2024/04/11 01:10:54;;;;;;;6.63;1.40;;;;;;;11.43;100.00;102798.31;5514589;26;20001;-80
2024/04/11 01:13:23;;;;;;;7.68;2.25;;;;;;;11.40;100.00;102795.84;5454322;26;19998;-79
2024/04/11 01:15:49;;;;;;;9.02;2.20;;;;;;;11.37;100.00;102800.53;5484899;26;20029;-80
2024/04/11 01:18:15;;;;;;;6.68;2.15;;;;;;;11.36;100.00;102798.81;5484019;26;20014;-79
2024/04/11 01:20:40;;;;;;;9.75;2.13;;;;;;;11.36;100.00;102798.81;5454481;26;20066;-79
2024/04/11 01:23:07;;;;;;;10.98;2.20;;;;;;;11.37;100.00;102793.38;5517511;26;20008;-79
2024/04/11 01:25:33;;;;;;;4.40;1.67;;;;;;;11.39;100.00;102788.81;5510655;26;20110;-80
2024/04/11 01:27:59;;;;;;;6.32;1.65;;;;;;;11.37;100.00;102790.72;5448237;26;20102;-80
2024/04/11 01:30:25;;;;;;;7.00;2.00;;;;;;;11.38;100.00;102787.09;5447812;26;20473;-78
2024/04/11 01:32:50;;;;;;;6.95;2.03;;;;;;;11.39;100.00;102794.16;5448070;26;19995;-79
2024/04/11 01:35:16;;;;;;;7.05;1.67;;;;;;;11.39;100.00;102795.94;5449162;26;20005;-76
2024/04/11 01:37:42;;;;;;;6.55;2.42;;;;;;;11.40;100.00;102808.31;5447774;26;20118;-75
2024/04/11 01:40:08;;;;;;;6.50;1.83;;;;;;;11.42;100.00;102809.06;5449379;26;19995;-78
2024/04/11 01:42:34;;;;;;;6.15;1.90;;;;;;;11.40;100.00;102811.84;5449439;26;19994;-80
2024/04/11 01:45:01;;;;;;;5.18;1.60;;;;;;;11.40;100.00;102826.97;5447655;26;19998;-78
2024/04/11 01:47:26;;;;;;;7.03;1.90;;;;;;;11.38;100.00;102826.22;5449308;26;19998;-81
2024/04/11 01:49:51;;;;;;;9.75;2.00;;;;;;;11.34;100.00;102819.38;5447570;26;19998;-80
2024/04/11 01:52:17;;;;;;;5.22;1.95;;;;;;;11.33;100.00;102830.97;5447199;26;20085;-78
2024/04/11 01:54:42;;;;;;;5.20;1.77;;;;;;;11.36;100.00;102825.44;5447424;26;20284;-78
2024/04/11 01:57:10;;;;;;;7.70;1.90;;;;;;;11.34;100.00;102822.88;5478023;26;20061;-79
2024/04/11 01:59:36;;;;;;;8.65;2.40;;;;;;;11.33;100.00;102823.84;5447228;26;20775;-79
2024/04/11 02:02:02;;;;;;;7.93;2.08;;;;;;;11.35;100.00;102819.28;5477984;26;20027;-79
2024/04/11 02:04:31;;;;;;;11.73;2.40;;;;;;;11.38;100.00;102811.09;5446923;26;20094;-79
2024/04/11 02:06:59;;;;;;;11.90;2.10;;;;;;;11.37;100.00;102819.19;5449187;26;19999;-77
2024/04/11 02:09:27;;;;;;;8.55;2.03;;;;;;;11.36;100.00;102814.78;5445958;26;20468;-77
2024/04/11 02:11:53;;;;;;;8.27;2.13;;;;;;;11.35;100.00;102811.28;5447960;26;19998;-78
2024/04/11 02:14:21;;;;;;;8.20;2.00;;;;;;;11.33;100.00;102828.31;5449225;26;20114;-81
2024/04/11 02:16:50;;;;;;;7.38;2.30;;;;;;;11.33;100.00;102826.53;5477048;26;20075;-77
2024/04/11 02:19:16;;;;;;;6.95;1.60;;;;;;;11.34;100.00;102827.38;5447536;26;20003;-78
2024/04/11 02:21:41;;;;;;;8.35;2.00;;;;;;;11.33;100.00;102831.84;5449003;26;19994;-77
2024/04/11 02:24:08;;;;;;;6.72;1.65;;;;;;;11.36;100.00;102820.13;5454437;26;20434;-78
2024/04/11 02:26:34;;;;;;;10.07;2.45;;;;;;;11.35;100.00;102834.41;5522089;26;19994;-77
2024/04/11 02:29:04;;;;;;;4.57;1.95;;;;;;;11.32;100.00;102823.94;5490076;26;19993;-78
2024/04/11 02:31:30;;;;;;;9.05;2.10;;;;;;;11.28;100.00;102821.44;5489013;26;19993;-77
2024/04/11 02:33:57;;;;;;;8.32;2.17;;;;;;;11.25;100.00;102821.66;5489803;26;20298;-77
2024/04/11 02:36:27;;;;;;;9.48;2.20;;;;;;;11.18;100.00;102811.47;5489060;26;19993;-79
2024/04/11 02:38:52;;;;;;;6.55;1.85;;;;;;;11.13;100.00;102800.25;5489284;26;20267;-77
2024/04/11 02:41:18;;;;;;;10.85;2.15;;;;;;;11.07;100.00;102807.66;5489644;26;20004;-78
2024/04/11 02:43:43;;;;;;;8.23;2.25;;;;;;;11.08;100.00;102805.88;5458690;26;20419;-77
2024/04/11 02:46:15;;;;;;;8.90;1.80;;;;;;;11.05;100.00;102806.91;5489247;26;20069;-77
2024/04/11 02:48:44;;;;;;;9.73;2.10;;;;;;;11.04;100.00;102802.50;5490543;26;20001;-78
2024/04/11 02:51:11;;;;;;;5.22;2.22;;;;;;;11.01;100.00;102796.53;5489210;26;20000;-78
2024/04/11 02:53:38;;;;;;;6.45;2.05;;;;;;;11.01;100.00;102804.53;5488624;26;20021;-77
2024/04/11 02:56:07;;;;;;;5.97;2.40;;;;;;;10.97;100.00;102800.31;5459526;26;20008;-78
2024/04/11 02:58:35;;;;;;;10.48;2.13;;;;;;;10.94;100.00;102804.03;5519416;26;20139;-76
2024/04/11 03:01:01;;;;;;;9.50;2.47;;;;;;;10.93;100.00;102786.34;5488860;26;20406;-77
2024/04/11 03:03:27;;;;;;;9.85;2.35;;;;;;;10.92;100.00;102784.63;5520886;26;20461;-78
2024/04/11 03:05:52;;;;;;;6.55;2.20;;;;;;;10.88;100.00;102796.41;5458451;26;19997;-77
2024/04/11 03:08:19;;;;;;;8.75;2.50;;;;;;;10.79;100.00;102789.84;5488677;26;20063;-77
2024/04/11 03:10:44;;;;;;;10.45;2.22;;;;;;;10.73;100.00;102791.09;5488770;26;20057;-77
2024/04/11 03:13:10;;;;;;;6.40;1.95;;;;;;;10.70;100.00;102785.94;5488895;26;20433;-77
2024/04/11 03:15:35;;;;;;;5.18;2.10;;;;;;;10.65;100.00;102781.84;5458129;26;20066;-77
2024/04/11 03:18:00;;;;;;;6.95;2.15;;;;;;;10.62;100.00;102780.22;5458209;26;20002;-78
2024/04/11 03:20:26;;;;;;;5.78;2.47;;;;;;;10.59;100.00;102772.41;5518676;26;20033;-78
2024/04/11 03:22:51;;;;;;;10.52;2.35;;;;;;;10.56;100.00;102759.28;5487590;26;20008;-78
2024/04/11 03:25:16;;;;;;;8.30;2.22;;;;;;;10.57;100.00;102759.19;5457517;26;20441;-77
2024/04/11 03:27:42;;;;;;;9.32;2.30;;;;;;;10.57;100.00;102753.03;5518700;26;19993;-76
2024/04/11 03:30:08;;;;;;;10.32;3.03;;;;;;;10.59;100.00;102751.13;5488275;26;20100;-78
2024/04/11 03:32:36;;;;;;;6.75;2.10;;;;;;;10.62;100.00;102748.25;5518534;26;20455;-79
2024/04/11 03:35:04;;;;;;;5.45;2.03;;;;;;;10.63;100.00;102744.66;5488199;26;19993;-77
2024/04/11 03:37:29;;;;;;;10.20;2.40;;;;;;;10.65;100.00;102749.91;5520653;26;20009;-78
2024/04/11 03:39:57;;;;;;;7.00;2.45;;;;;;;10.64;100.00;102743.69;5487663;26;20422;-79
2024/04/11 03:42:23;;;;;;;5.20;2.40;;;;;;;10.66;100.00;102756.91;5488055;26;20001;-78
2024/04/11 03:44:49;;;;;;;8.25;2.35;;;;;;;10.65;100.00;102756.06;5457005;26;20001;-78
2024/04/11 03:47:14;;;;;;;7.72;2.53;;;;;;;10.63;100.00;102759.75;5488051;26;20004;-77
2024/04/11 03:49:40;;;;;;;5.75;2.45;;;;;;;10.64;100.00;102769.47;5518303;26;19993;-78
2024/04/11 03:52:06;;;;;;;9.98;2.47;;;;;;;10.64;100.00;102770.31;5488140;26;20008;-77
2024/04/11 03:54:32;;;;;;;10.75;2.65;;;;;;;10.65;100.00;102771.19;5488164;26;20008;-77
2024/04/11 03:56:58;;;;;;;9.23;3.08;;;;;;;10.65;100.00;102772.03;5487976;26;19993;-76
2024/04/11 03:59:25;;;;;;;9.15;3.30;;;;;;;10.68;100.00;102768.34;5521236;26;20456;-77
2024/04/11 04:01:51;;;;;;;10.95;2.60;;;;;;;10.68;100.00;102769.19;5487169;26;20327;-77
2024/04/11 04:04:19;;;;;;;10.35;2.95;;;;;;;10.69;100.00;102778.03;5488003;26;20017;-77
2024/04/11 04:06:45;;;;;;;12.52;3.33;;;;;;;10.69;100.00;102780.69;5457604;26;20008;-77
2024/04/11 04:09:10;;;;;;;8.05;2.85;;;;;;;10.68;100.00;102779.00;5457115;26;19994;-76
2024/04/11 04:11:36;;;;;;;8.52;3.10;;;;;;;10.68;100.00;102777.19;5487279;26;20001;-78
2024/04/11 04:14:03;;;;;;;9.68;2.85;;;;;;;10.68;100.00;102773.66;5487631;26;19997;-78
2024/04/11 04:16:28;;;;;;;7.55;3.10;;;;;;;10.68;100.00;102779.00;5487740;26;20037;-77
2024/04/11 04:18:54;;;;;;;11.32;3.35;;;;;;;10.66;100.00;102775.53;5519476;26;19997;-77
2024/04/11 04:21:20;;;;;;;10.40;3.45;;;;;;;10.64;100.00;102780.13;5518374;26;19997;-77
2024/04/11 04:23:48;;;;;;;8.43;3.33;;;;;;;10.62;100.00;102793.53;5486475;26;20402;-76
2024/04/11 04:26:16;;;;;;;8.95;3.50;;;;;;;10.61;100.00;102798.94;5518265;26;20008;-76
2024/04/11 04:28:42;;;;;;;12.80;3.40;;;;;;;10.62;100.00;102814.81;5519509;26;20000;-77
2024/04/11 04:31:15;;;;;;;12.07;3.80;;;;;;;10.60;100.00;102806.06;5519397;26;19997;-76
2024/04/11 04:33:52;;;;;;;6.95;3.95;;;;;;;10.59;100.00;102821.16;5523378;26;19993;-77
2024/04/11 04:36:33;;;;;;;16.02;4.18;;;;;;;10.56;100.00;102812.53;5523707;26;20001;-77
2024/04/11 04:38:59;;;;;;;7.45;3.60;;;;;;;10.52;100.00;102817.16;5490713;26;19993;-77
2024/04/11 04:41:29;;;;;;;12.80;3.83;;;;;;;10.55;100.00;102824.09;5523763;26;20005;-79
2024/04/11 04:43:56;;;;;;;11.30;3.70;;;;;;;10.54;100.00;102828.59;5521297;26;20004;-77
2024/04/11 04:46:23;;;;;;;9.68;4.10;;;;;;;10.54;100.00;102825.94;5491065;26;19993;-77
2024/04/11 04:48:50;;;;;;;6.82;4.07;;;;;;;10.59;100.00;102830.97;5523050;26;19998;-77
2024/04/11 04:51:18;;;;;;;8.95;4.00;;;;;;;10.61;100.00;102828.22;5521981;26;19998;-78
2024/04/11 04:53:49;;;;;;;8.38;4.40;;;;;;;10.62;100.00;102840.59;5521284;26;20390;-79
2024/04/11 04:56:17;;;;;;;13.43;4.47;;;;;;;10.63;100.00;102842.28;5523714;26;19994;-80
2024/04/11 04:58:43;;;;;;;9.88;4.55;;;;;;;10.65;100.00;102827.94;5490284;26;20066;-81
2024/04/11 05:01:10;;;;;;;11.85;5.60;;;;;;;10.66;100.00;102835.00;5521840;26;20035;-79
2024/04/11 05:03:38;;;;;;;11.68;5.38;;;;;;;10.67;100.00;102828.69;5461031;26;20401;-79
2024/04/11 05:06:12;;;;;;;10.15;5.03;;;;;;;10.69;100.00;102837.47;5523063;26;19998;-79
2024/04/11 05:08:44;;;;;;;9.20;4.82;;;;;;;10.70;100.00;102839.19;5492768;26;20060;-80
2024/04/11 05:11:12;;;;;;;9.30;5.00;;;;;;;10.68;100.00;102838.41;5522192;26;20005;-81
2024/04/11 05:13:41;;;;;;;15.60;6.35;;;;;;;10.67;100.00;102843.81;5491477;26;20416;-78
2024/04/11 05:16:08;;;;;;;8.35;5.75;;;;;;;10.69;100.00;102842.78;5490585;26;20032;-78
2024/04/11 05:18:37;;;;;;;11.90;6.35;;;;;;;10.70;100.00;102854.28;5493310;26;20000;-77
2024/04/11 05:21:12;;;;;;;8.13;6.28;;;;;;;10.70;100.00;102859.63;5522630;26;20004;-77
2024/04/11 05:23:41;;;;;;;12.50;6.30;;;;;;;10.67;100.00;102859.81;5523515;26;20468;-80
2024/04/11 05:26:07;;;;;;;14.23;7.05;;;;;;;10.61;100.00;102857.50;5522397;26;20038;-77
2024/04/11 05:28:35;;;;;;;12.95;8.35;;;;;;;10.52;100.00;102862.41;5523001;26;20308;-80
2024/04/11 05:31:06;;;;;;;11.43;7.47;;;;;;;10.45;100.00;102862.84;5522585;26;19997;-80
2024/04/11 05:33:36;;;;;;;14.77;8.88;;;;;;;10.37;100.00;102855.31;5520780;26;20398;-79
2024/04/11 05:36:06;;;;;;;16.98;9.80;;;;;;;10.33;100.00;102859.06;5489498;26;19998;-80
2024/04/11 05:38:37;;;;;;;12.32;8.98;;;;;;;10.32;100.00;102865.34;5520461;26;19997;-78
2024/04/11 05:41:04;;;;;;;18.35;9.40;;;;;;;10.32;100.00;102858.22;5521900;26;19993;-79
2024/04/11 05:43:30;;;;;;;17.23;9.35;;;;;;;10.33;100.00;102869.69;5520446;26;20012;-79
2024/04/11 05:45:57;;;;;;;15.85;9.00;;;;;;;10.36;100.00;102864.22;5520126;26;19993;-79
2024/04/11 05:48:23;;;;;;;14.65;9.82;;;;;;;10.39;100.00;102859.63;5489771;26;20021;-78
2024/04/11 05:50:50;;;;;;;16.48;9.20;;;;;;;10.43;100.00;102872.75;5489198;26;20113;-81
2024/04/11 05:53:16;;;;;;;11.43;9.13;;;;;;;10.45;100.00;102871.72;5520325;26;19998;-78
2024/04/11 05:55:41;;;;;;;14.27;8.98;;;;;;;10.50;100.00;102858.97;5489693;26;20065;-78
2024/04/11 05:58:07;;;;;;;16.55;9.23;;;;;;;10.53;100.00;102853.47;5488426;26;20410;-78
2024/04/11 06:00:32;;;;;;;14.75;8.93;;;;;;;10.55;100.00;102854.25;5520242;26;19993;-79
2024/04/11 06:03:08;;;;;;;17.70;9.00;;;;;;;10.58;100.00;102864.72;5519238;26;20382;-78
2024/04/11 06:05:36;;;;;;;13.10;8.35;;;;;;;10.61;100.00;102866.34;5520265;26;20295;-78
2024/04/11 06:08:02;;;;;;;16.80;7.90;;;;;;;10.62;100.00;102870.72;5521575;26;19997;-79
2024/04/11 06:10:29;;;;;;;18.10;8.13;;;;;;;10.63;100.00;102880.44;5489199;26;20406;-78
2024/04/11 06:12:54;;;;;;;12.45;7.68;;;;;;;10.67;100.00;102875.78;5521149;26;20015;-78
2024/04/11 06:15:19;;;;;;;9.13;7.00;;;;;;;10.69;100.00;102877.41;5489186;26;20304;-79
2024/04/11 06:17:45;;;;;;;13.30;7.53;;;;;;;10.70;100.00;102883.56;5522648;26;20370;-79
2024/04/11 06:20:16;;;;;;;11.48;7.00;;;;;;;10.75;100.00;102892.16;5488436;26;20009;-79
2024/04/11 06:22:51;;;;;;;11.67;7.17;;;;;;;10.74;100.00;102896.63;5522037;26;20084;-78
2024/04/11 06:25:20;;;;;;;15.40;8.23;;;;;;;10.77;100.00;102892.94;5462033;26;19998;-76
2024/04/11 06:27:45;;;;;;;13.00;7.55;;;;;;;10.81;100.00;102902.47;5448916;26;20019;-78
2024/04/11 06:30:14;;;;;;;13.65;7.82;;;;;;;10.84;100.00;102904.94;5416599;26;19995;-77
2024/04/11 06:32:42;;;;;;;15.95;9.02;;;;;;;10.86;100.00;102912.84;5446952;26;20006;-78
2024/04/11 06:35:08;;;;;;;20.67;10.80;;;;;;;10.89;100.00;102904.66;5448093;26;20042;-77
2024/04/11 06:37:35;;;;;;;18.98;10.50;;;;;;;10.90;100.00;102914.38;5448490;26;20031;-79
2024/04/11 06:40:11;;;;;;;19.10;11.38;;;;;;;10.92;100.00;102912.47;5447888;26;20005;-80
2024/04/11 06:42:46;;;;;;;20.88;13.38;;;;;;;10.93;100.00;102914.19;5448828;26;20060;-79
2024/04/11 06:45:15;;;;;;;19.40;12.82;;;;;;;10.93;100.00;102923.03;5476117;26;20010;-79
2024/04/11 06:47:42;;;;;;;19.80;12.05;;;;;;;10.98;100.00;102924.56;5446811;26;20022;-80
2024/04/11 06:50:08;;;;;;;23.27;12.50;;;;;;;11.00;100.00;102922.66;5446625;26;20392;-79
2024/04/11 06:52:33;;;;;;;21.17;13.35;;;;;;;11.02;100.00;102931.44;5477224;26;20009;-79
2024/04/11 06:54:59;;;;;;;22.42;14.25;;;;;;;11.01;100.00;102930.56;5447030;26;20005;-80
2024/04/11 06:57:26;;;;;;;25.80;15.40;;;;;;;11.00;100.00;102950.19;5446983;26;20014;-79
2024/04/11 06:59:52;;;;;;;28.48;14.00;;;;;;;11.00;100.00;102931.53;5448520;26;20015;-78
2024/04/11 07:02:17;;;;;;;22.40;15.02;;;;;;;11.00;100.00;102934.19;5446132;26;20071;-77
2024/04/11 07:04:43;;;;;;;27.48;16.08;;;;;;;11.01;100.00;102943.88;5446452;26;20010;-77
2024/04/11 07:07:09;;;;;;;24.77;14.95;;;;;;;11.05;100.00;102940.09;5447637;26;19999;-76
2024/04/11 07:09:37;;;;;;;24.38;13.98;;;;;;;11.04;100.00;102949.03;5446511;26;20006;-76
2024/04/11 07:12:06;;;;;;;20.85;13.93;;;;;;;11.05;100.00;102956.09;5447666;26;19999;-77
2024/04/11 07:14:32;;;;;;;21.55;14.88;;;;;;;11.05;100.00;102934.78;5475872;26;20186;-77
2024/04/11 07:16:57;;;;;;;20.50;14.00;;;;;;;11.07;100.00;102954.16;5448188;26;20399;-76
2024/04/11 07:19:23;;;;;;;26.48;13.90;;;;;;;11.07;100.00;102956.00;5447402;26;20005;-77
2024/04/11 07:21:48;;;;;;;28.17;12.38;;;;;;;11.07;100.00;102967.50;5448026;26;20023;-81
2024/04/11 07:24:14;;;;;;;24.92;13.15;;;;;;;11.09;100.00;102976.28;5453989;26;20006;-76
2024/04/11 07:26:40;;;;;;;22.67;12.55;;;;;;;11.08;100.00;102971.88;5458395;26;20008;-80
2024/04/11 07:29:06;;;;;;;24.33;11.85;;;;;;;11.13;100.00;102974.28;5518855;26;19997;-80
2024/04/11 07:31:35;;;;;;;20.00;11.77;;;;;;;11.15;100.00;102984.84;5521051;26;20008;-79
2024/04/11 07:34:02;;;;;;;22.45;12.15;;;;;;;11.18;100.00;102987.31;5546504;25;20404;-79
2024/04/11 07:36:30;;;;;;;19.05;11.30;;;;;;;11.20;100.00;102990.78;5554728;25;20112;-81
2024/04/11 07:38:57;;;;;;;25.98;12.60;;;;;;;11.21;100.00;103000.47;5554907;25;20124;-79
2024/04/11 07:41:28;;;;;;;19.40;12.65;;;;;;;11.24;100.00;102986.94;5554456;25;19988;-78
2024/04/11 07:44:00;;;;;;;21.83;11.50;;;;;;;11.33;100.00;103001.53;5521429;25;20063;-80
2024/04/11 07:46:29;;;;;;;26.08;11.35;;;;;;;11.34;100.00;103004.13;5554204;25;20068;-78
2024/04/11 07:48:59;;;;;;;21.92;11.77;;;;;;;11.37;100.00;103006.59;5554440;25;20008;-80
2024/04/11 07:51:26;;;;;;;19.30;10.85;;;;;;;11.39;100.00;103023.38;5520724;25;20017;-79
2024/04/11 07:53:51;;;;;;;16.98;9.98;;;;;;;11.42;100.00;103017.84;5554712;25;20007;-79
2024/04/11 07:56:21;;;;;;;18.25;10.57;;;;;;;11.40;100.00;103006.41;5553928;25;20173;-79
2024/04/11 07:58:53;;;;;;;18.27;10.18;;;;;;;11.38;100.00;103004.81;5522751;25;20438;-79
2024/04/11 08:01:31;;;;;;;19.70;10.35;;;;;;;11.37;100.00;102998.59;5553916;25;20018;-82
2024/04/11 08:03:57;;;;;;;20.75;10.05;;;;;;;11.40;100.00;103008.22;5521531;25;19993;-80
2024/04/11 08:06:23;;;;;;;19.55;10.23;;;;;;;11.39;100.00;103019.81;5493498;25;20124;-81
2024/04/11 08:08:48;;;;;;;21.67;9.25;;;;;;;11.38;100.00;103026.13;5557918;25;20108;-76
2024/04/11 08:11:15;;;;;;;19.73;9.18;;;;;;;11.31;100.00;103022.94;5557577;25;20007;-76
2024/04/11 08:13:43;;;;;;;19.52;9.02;;;;;;;11.35;100.00;103018.31;5558099;25;19997;-76
2024/04/11 08:16:09;;;;;;;19.88;8.90;;;;;;;11.42;100.00;103022.31;5554638;25;20005;-77
2024/04/11 08:18:35;;;;;;;16.27;7.95;;;;;;;11.51;100.00;103034.22;5538407;25;19997;-75
2024/04/11 08:21:03;;;;;;;14.65;8.00;;;;;;;11.60;100.00;103036.38;5559884;25;20007;-77
2024/04/11 08:23:29;;;;;;;20.20;6.85;;;;;;;11.65;100.00;103035.13;5559330;25;20108;-77
2024/04/11 08:25:55;;;;;;;15.15;6.28;;;;;;;11.75;100.00;103035.44;5560154;25;20421;-78
2024/04/11 08:28:21;;;;;;;12.40;5.63;;;;;;;11.72;100.00;103048.97;5559851;25;19997;-77
2024/04/11 08:30:47;;;;;;;14.00;6.05;;;;;;;11.72;100.00;103053.41;5560277;25;20029;-77
2024/04/11 08:33:14;;;;;;;15.35;5.68;;;;;;;11.66;100.00;103052.00;5560054;25;20007;-77
2024/04/11 08:35:44;;;;;;;15.18;5.90;;;;;;;11.62;100.00;103039.78;5560093;25;20433;-77
2024/04/11 08:38:12;;;;;;;15.65;6.32;;;;;;;11.65;100.00;103039.59;5560348;25;20064;-77
2024/04/11 08:40:41;;;;;;;14.65;6.05;;;;;;;11.66;100.00;103054.66;5559661;25;19999;-76
2024/04/11 08:43:09;;;;;;;14.10;5.78;;;;;;;11.67;100.00;103056.38;5560035;25;20049;-77
2024/04/11 08:45:35;;;;;;;11.65;5.82;;;;;;;11.63;100.00;103053.03;5559459;25;20264;-77
2024/04/11 08:48:01;;;;;;;15.23;6.07;;;;;;;11.61;100.00;103049.63;5559958;25;20269;-76
2024/04/11 08:50:27;;;;;;;17.95;6.30;;;;;;;11.59;100.00;103053.31;5559596;25;20000;-77
2024/04/11 08:52:54;;;;;;;12.10;5.75;;;;;;;11.54;100.00;103056.25;5527147;25;20474;-77
2024/04/11 08:55:19;;;;;;;12.40;5.70;;;;;;;11.52;100.00;103062.63;5559412;25;20007;-77
2024/04/11 08:57:45;;;;;;;17.33;5.38;;;;;;;11.61;100.00;103054.94;5559847;25;20005;-78
2024/04/11 09:00:13;;;;;;;17.13;5.50;;;;;;;11.67;100.00;103058.19;5559797;25;19993;-77
2024/04/11 09:02:41;;;;;;;23.27;7.00;;;;;;;11.68;100.00;103062.56;5559184;25;19997;-76
2024/04/11 09:05:10;;;;;;;16.95;6.13;;;;;;;11.65;100.00;103060.94;5526818;25;20000;-77
2024/04/11 09:07:37;;;;;;;16.42;5.20;;;;;;;11.70;100.00;103071.31;5559474;25;19992;-77
2024/04/11 09:10:05;;;;;;;16.13;5.65;;;;;;;11.74;100.00;103076.38;5526428;25;20282;-77
2024/04/11 09:12:30;;;;;;;12.27;5.38;;;;;;;11.82;100.00;103078.59;5558918;25;20074;-76
2024/04/11 09:14:56;;;;;;;13.95;5.93;;;;;;;11.77;100.00;103076.19;5526156;25;20024;-77
2024/04/11 09:17:22;;;;;;;13.20;5.82;;;;;;;11.80;100.00;103096.50;5524884;25;20030;-79
2024/04/11 09:19:49;;;;;;;12.85;5.80;;;;;;;11.76;100.00;103095.84;5559529;25;19993;-77
2024/04/11 09:22:16;;;;;;;15.32;5.78;;;;;;;11.73;100.00;103092.47;5559732;25;20015;-78
2024/04/11 09:24:45;;;;;;;14.30;6.75;;;;;;;11.75;100.00;103095.94;5558506;25;20035;-77
2024/04/11 09:27:15;;;;;;;13.90;5.72;;;;;;;11.83;100.00;103109.66;5559477;25;20127;-77
2024/04/11 09:29:41;;;;;;;14.07;5.43;;;;;;;11.85;100.00;103106.88;5558895;25;20205;-77
2024/04/11 09:32:11;;;;;;;13.10;6.00;;;;;;;11.89;100.00;103106.63;5559572;25;20065;-77
2024/04/11 09:34:39;;;;;;;13.73;5.97;;;;;;;11.88;100.00;103104.03;5558784;25;20003;-77
2024/04/11 09:37:09;;;;;;;11.98;5.63;;;;;;;11.88;100.00;103128.03;5559184;25;20293;-77
2024/04/11 09:39:57;;;;;;;14.23;6.03;;;;;;;11.87;100.00;103121.88;5558342;25;20008;-77
2024/04/11 09:42:27;;;;;;;17.50;7.30;;;;;;;11.86;100.00;103124.63;5559385;25;20076;-78
2024/04/11 09:44:55;;;;;;;14.05;5.53;;;;;;;11.92;100.00;103111.75;5559348;25;20069;-79
2024/04/11 09:47:27;;;;;;;16.20;5.80;;;;;;;11.99;100.00;103118.47;5559270;25;20403;-80
2024/04/11 09:49:55;;;;;;;15.75;5.30;;;;;;;12.02;100.00;103122.78;5559834;25;20012;-80
2024/04/11 09:52:27;;;;;;;15.43;5.82;;;;;;;12.08;100.00;103126.91;5559287;25;20028;-80
2024/04/11 09:54:55;;;;;;;16.77;5.80;;;;;;;12.20;100.00;103136.81;5558971;25;20016;-78
2024/04/11 09:57:23;;;;;;;17.95;5.60;;;;;;;12.32;100.00;103141.38;5558960;25;19993;-78
2024/04/11 09:59:49;;;;;;;13.95;5.47;;;;;;;12.46;100.00;103131.66;5554472;25;20020;-79
2024/04/11 10:02:16;;;;;;;9.27;4.88;;;;;;;12.60;100.00;103137.00;5522670;25;19992;-79
2024/04/11 10:04:42;;;;;;;13.40;5.00;;;;;;;12.63;100.00;103133.28;5521963;25;20108;-79
2024/04/11 10:07:12;;;;;;;13.98;4.90;;;;;;;12.64;100.00;103138.50;5555549;25;20008;-77
2024/04/11 10:09:47;;;;;;;13.55;5.45;;;;;;;12.69;100.00;103140.91;5521790;25;20013;-78
2024/04/11 10:12:19;;;;;;;14.60;5.32;;;;;;;12.82;100.00;103140.97;5522471;25;20289;-79
2024/04/11 10:14:56;;;;;;;12.65;5.03;;;;;;;12.79;100.00;103147.38;5554998;25;20025;-78
2024/04/11 10:17:25;;;;;;;15.75;5.13;;;;;;;12.86;100.00;103150.53;5555525;25;20020;-78
2024/04/11 10:19:53;;;;;;;14.93;5.78;;;;;;;12.87;100.00;103153.09;5554986;25;20004;-78
2024/04/11 10:22:24;;;;;;;12.45;5.00;;;;;;;12.92;100.00;103155.47;5555830;25;19993;-78
2024/04/11 10:24:50;;;;;;;;;;;;;;;13.05;100.00;103152.88;5555152;25;20003;-79
2024/04/11 10:27:18;;;;;;;18.25;4.75;;;;;;;13.20;100.00;103154.56;5555294;25;19950;-78
2024/04/11 10:29:48;;;;;;;16.30;5.45;;;;;;;13.41;100.00;103159.50;5553448;25;19993;-78
2024/04/11 10:32:22;;;;;;;15.00;4.93;;;;;;;13.59;100.00;103157.41;5555524;25;20007;-79
2024/04/11 10:34:55;;;;;;;14.32;4.65;;;;;;;13.63;100.00;103172.31;5554630;25;20385;-77
2024/04/11 10:37:24;;;;;;;19.25;5.45;;;;;;;13.75;100.00;103170.63;5552505;25;20076;-82
2024/04/11 10:39:54;;;;;;;11.40;5.07;;;;;;;13.85;100.00;103165.50;5553490;25;20008;-78
2024/04/11 10:42:39;;;;;;;15.63;4.45;;;;;;;13.86;100.00;103162.72;5554728;25;19996;-79
2024/04/11 10:45:10;;;;;;;13.63;5.13;;;;;;;14.03;100.00;103164.25;5555331;25;20453;-77
2024/04/11 10:47:36;;;;;;;14.90;5.00;;;;;;;14.08;100.00;103154.06;5554611;25;19996;-79
2024/04/11 10:50:09;;;;;;;11.93;5.03;;;;;;;14.10;100.00;103160.16;5554818;25;20114;-77
2024/04/11 10:52:38;;;;;;;9.95;4.60;;;;;;;14.21;100.00;103151.41;5554304;25;19993;-79
2024/04/11 10:55:12;;;;;;;14.95;4.57;;;;;;;14.64;100.00;103147.53;5555164;25;20031;-80
2024/04/11 10:58:09;;;;;;;10.60;4.03;;;;;;;14.92;100.00;103150.94;5556694;25;20049;-78
2024/04/11 11:03:40;;;;;;;15.15;5.25;;;;;;;15.60;100.00;103137.88;5554833;25;20426;-80
2024/04/11 11:06:39;;;;;;;12.82;4.43;;;;;;;15.75;100.00;103144.75;5554697;25;20092;-81
2024/04/11 11:09:13;;;;;;;11.40;3.47;;;;;;;15.44;100.00;103163.16;5553238;25;20000;-81
2024/04/11 11:11:40;;;;;;;11.38;4.13;;;;;;;15.54;100.00;103168.72;5553429;25;20001;-81
2024/04/11 11:14:09;;;;;;;9.82;4.00;;;;;;;15.33;100.00;103163.09;5551094;25;19992;-80
2024/04/11 11:16:43;;;;;;;11.07;3.92;;;;;;;15.34;100.00;103173.72;5546936;25;20088;-81